sensor_id;sensor_type;location;lat;lon;timestamp;P1;durP1;ratioP1;P2;durP2;ratioP2
15402;SDS011;7799;53.478;10.170;2023-04-25T00:00:35;1.87;;;1.77;;
15402;SDS011;7799;53.478;10.170;2023-04-25T00:03:01;2.23;;;2.03;;
15402;SDS011;7799;53.478;10.170;2023-04-25T00:05:30;2.70;;;2.10;;
15402;SDS011;7799;53.478;10.170;2023-04-25T00:07:57;2.97;;;1.70;;
15402;SDS011;7799;53.478;10.170;2023-04-25T00:10:23;2.03;;;1.83;;
15402;SDS011;7799;53.478;10.170;2023-04-25T00:12:50;1.50;;;1.40;;
15402;SDS011;7799;53.478;10.170;2023-04-25T00:15:18;2.00;;;1.80;;
15402;SDS011;7799;53.478;10.170;2023-04-25T00:17:45;1.53;;;1.43;;
15402;SDS011;7799;53.478;10.170;2023-04-25T00:20:11;2.17;;;1.63;;
15402;SDS011;7799;53.478;10.170;2023-04-25T00:22:38;1.87;;;1.77;;
15402;SDS011;7799;53.478;10.170;2023-04-25T00:25:05;2.63;;;2.00;;
15402;SDS011;7799;53.478;10.170;2023-04-25T00:27:33;2.13;;;1.40;;
15402;SDS011;7799;53.478;10.170;2023-04-25T00:29:59;1.63;;;1.40;;
15402;SDS011;7799;53.478;10.170;2023-04-25T00:32:27;1.50;;;1.40;;
15402;SDS011;7799;53.478;10.170;2023-04-25T00:34:54;1.87;;;1.60;;
15402;SDS011;7799;53.478;10.170;2023-04-25T00:37:22;2.87;;;1.90;;
15402;SDS011;7799;53.478;10.170;2023-04-25T00:39:49;3.03;;;2.40;;
15402;SDS011;7799;53.478;10.170;2023-04-25T00:42:18;3.93;;;2.37;;
15402;SDS011;7799;53.478;10.170;2023-04-25T00:44:46;2.63;;;1.97;;
15402;SDS011;7799;53.478;10.170;2023-04-25T00:47:13;3.73;;;2.20;;
15402;SDS011;7799;53.478;10.170;2023-04-25T00:49:41;3.30;;;1.80;;
15402;SDS011;7799;53.478;10.170;2023-04-25T00:52:11;4.17;;;2.20;;
15402;SDS011;7799;53.478;10.170;2023-04-25T00:54:38;6.70;;;2.80;;
15402;SDS011;7799;53.478;10.170;2023-04-25T00:57:04;4.27;;;2.30;;
15402;SDS011;7799;53.478;10.170;2023-04-25T00:59:31;2.23;;;1.60;;
15402;SDS011;7799;53.478;10.170;2023-04-25T01:01:58;4.47;;;2.00;;
15402;SDS011;7799;53.478;10.170;2023-04-25T01:04:25;4.27;;;1.97;;
15402;SDS011;7799;53.478;10.170;2023-04-25T01:06:54;9.53;;;2.53;;
15402;SDS011;7799;53.478;10.170;2023-04-25T01:09:22;5.30;;;2.70;;
15402;SDS011;7799;53.478;10.170;2023-04-25T01:11:49;5.50;;;2.33;;
15402;SDS011;7799;53.478;10.170;2023-04-25T01:14:15;6.33;;;2.90;;
15402;SDS011;7799;53.478;10.170;2023-04-25T01:16:42;3.77;;;1.90;;
15402;SDS011;7799;53.478;10.170;2023-04-25T01:19:10;7.07;;;2.13;;
15402;SDS011;7799;53.478;10.170;2023-04-25T01:21:38;7.20;;;2.37;;
15402;SDS011;7799;53.478;10.170;2023-04-25T01:24:05;4.43;;;2.50;;
15402;SDS011;7799;53.478;10.170;2023-04-25T01:26:32;3.97;;;2.30;;
15402;SDS011;7799;53.478;10.170;2023-04-25T01:32:43;2.80;;;1.80;;
15402;SDS011;7799;53.478;10.170;2023-04-25T01:35:10;3.87;;;2.10;;
15402;SDS011;7799;53.478;10.170;2023-04-25T01:37:39;5.03;;;2.20;;
15402;SDS011;7799;53.478;10.170;2023-04-25T01:40:07;5.00;;;2.40;;
15402;SDS011;7799;53.478;10.170;2023-04-25T01:42:34;6.47;;;2.57;;
15402;SDS011;7799;53.478;10.170;2023-04-25T01:45:02;7.17;;;2.67;;
15402;SDS011;7799;53.478;10.170;2023-04-25T01:47:29;4.27;;;2.30;;
15402;SDS011;7799;53.478;10.170;2023-04-25T01:49:56;3.53;;;1.87;;
15402;SDS011;7799;53.478;10.170;2023-04-25T01:52:22;4.87;;;2.03;;
15402;SDS011;7799;53.478;10.170;2023-04-25T01:54:50;6.77;;;2.60;;
15402;SDS011;7799;53.478;10.170;2023-04-25T01:57:17;6.73;;;2.77;;
15402;SDS011;7799;53.478;10.170;2023-04-25T01:59:45;3.83;;;2.53;;
15402;SDS011;7799;53.478;10.170;2023-04-25T02:02:20;5.83;;;2.57;;
15402;SDS011;7799;53.478;10.170;2023-04-25T02:04:47;6.03;;;2.27;;
15402;SDS011;7799;53.478;10.170;2023-04-25T02:07:14;9.30;;;3.00;;
15402;SDS011;7799;53.478;10.170;2023-04-25T02:13:31;8.10;;;3.20;;
15402;SDS011;7799;53.478;10.170;2023-04-25T02:16:18;5.83;;;2.80;;
15402;SDS011;7799;53.478;10.170;2023-04-25T02:18:44;12.27;;;3.53;;
15402;SDS011;7799;53.478;10.170;2023-04-25T02:21:12;9.03;;;3.20;;
15402;SDS011;7799;53.478;10.170;2023-04-25T02:23:38;6.57;;;2.70;;
15402;SDS011;7799;53.478;10.170;2023-04-25T02:26:05;4.60;;;2.27;;
15402;SDS011;7799;53.478;10.170;2023-04-25T02:28:33;5.40;;;2.80;;
15402;SDS011;7799;53.478;10.170;2023-04-25T02:31:03;4.57;;;2.17;;
15402;SDS011;7799;53.478;10.170;2023-04-25T02:33:30;7.90;;;2.97;;
15402;SDS011;7799;53.478;10.170;2023-04-25T02:35:57;3.57;;;2.33;;
15402;SDS011;7799;53.478;10.170;2023-04-25T02:38:23;7.70;;;2.50;;
15402;SDS011;7799;53.478;10.170;2023-04-25T02:40:50;4.30;;;2.07;;
15402;SDS011;7799;53.478;10.170;2023-04-25T02:43:17;5.97;;;2.27;;
15402;SDS011;7799;53.478;10.170;2023-04-25T02:45:45;5.63;;;2.20;;
15402;SDS011;7799;53.478;10.170;2023-04-25T02:48:11;2.67;;;1.80;;
15402;SDS011;7799;53.478;10.170;2023-04-25T02:50:38;4.73;;;1.87;;
15402;SDS011;7799;53.478;10.170;2023-04-25T02:53:05;4.07;;;2.30;;
15402;SDS011;7799;53.478;10.170;2023-04-25T02:55:37;3.67;;;2.20;;
15402;SDS011;7799;53.478;10.170;2023-04-25T02:58:04;2.57;;;1.83;;
15402;SDS011;7799;53.478;10.170;2023-04-25T03:00:46;5.80;;;2.40;;
15402;SDS011;7799;53.478;10.170;2023-04-25T03:03:12;4.40;;;1.87;;
15402;SDS011;7799;53.478;10.170;2023-04-25T03:05:41;4.77;;;2.13;;
15402;SDS011;7799;53.478;10.170;2023-04-25T03:08:07;5.57;;;2.50;;
15402;SDS011;7799;53.478;10.170;2023-04-25T03:10:38;5.43;;;2.67;;
15402;SDS011;7799;53.478;10.170;2023-04-25T03:47:51;4.40;;;2.00;;
15402;SDS011;7799;53.478;10.170;2023-04-25T03:50:20;4.73;;;2.10;;
15402;SDS011;7799;53.478;10.170;2023-04-25T03:52:47;2.93;;;1.87;;
15402;SDS011;7799;53.478;10.170;2023-04-25T03:55:14;4.13;;;2.47;;
15402;SDS011;7799;53.478;10.170;2023-04-25T03:57:40;4.00;;;2.00;;
15402;SDS011;7799;53.478;10.170;2023-04-25T04:00:07;6.03;;;2.83;;
15402;SDS011;7799;53.478;10.170;2023-04-25T04:02:40;4.13;;;2.40;;
15402;SDS011;7799;53.478;10.170;2023-04-25T04:05:10;5.13;;;2.13;;
15402;SDS011;7799;53.478;10.170;2023-04-25T04:07:43;3.60;;;2.07;;
15402;SDS011;7799;53.478;10.170;2023-04-25T04:10:11;4.40;;;2.17;;
15402;SDS011;7799;53.478;10.170;2023-04-25T04:12:39;5.57;;;2.80;;
15402;SDS011;7799;53.478;10.170;2023-04-25T04:15:06;3.10;;;2.10;;
15402;SDS011;7799;53.478;10.170;2023-04-25T04:17:34;4.80;;;1.90;;
15402;SDS011;7799;53.478;10.170;2023-04-25T04:20:00;4.17;;;2.17;;
15402;SDS011;7799;53.478;10.170;2023-04-25T04:22:31;3.40;;;2.00;;
15402;SDS011;7799;53.478;10.170;2023-04-25T04:25:02;4.13;;;1.90;;
15402;SDS011;7799;53.478;10.170;2023-04-25T04:27:49;3.60;;;1.83;;
15402;SDS011;7799;53.478;10.170;2023-04-25T04:30:32;5.77;;;2.17;;
15402;SDS011;7799;53.478;10.170;2023-04-25T04:33:03;4.30;;;2.20;;
15402;SDS011;7799;53.478;10.170;2023-04-25T04:35:31;4.30;;;2.10;;
15402;SDS011;7799;53.478;10.170;2023-04-25T04:37:59;4.40;;;2.00;;
15402;SDS011;7799;53.478;10.170;2023-04-25T04:40:30;4.10;;;2.23;;
15402;SDS011;7799;53.478;10.170;2023-04-25T04:43:16;4.40;;;2.23;;
15402;SDS011;7799;53.478;10.170;2023-04-25T04:45:49;4.50;;;1.70;;
15402;SDS011;7799;53.478;10.170;2023-04-25T04:48:28;3.50;;;2.00;;
15402;SDS011;7799;53.478;10.170;2023-04-25T04:51:17;3.00;;;1.60;;
15402;SDS011;7799;53.478;10.170;2023-04-25T04:54:05;2.87;;;1.90;;
15402;SDS011;7799;53.478;10.170;2023-04-25T04:56:43;2.90;;;1.60;;
15402;SDS011;7799;53.478;10.170;2023-04-25T04:59:42;3.33;;;1.97;;
15402;SDS011;7799;53.478;10.170;2023-04-25T05:02:44;4.67;;;1.90;;
15402;SDS011;7799;53.478;10.170;2023-04-25T05:05:14;4.90;;;2.10;;
15402;SDS011;7799;53.478;10.170;2023-04-25T05:07:56;2.80;;;1.63;;
15402;SDS011;7799;53.478;10.170;2023-04-25T05:10:53;4.10;;;2.00;;
15402;SDS011;7799;53.478;10.170;2023-04-25T05:13:36;2.70;;;1.60;;
15402;SDS011;7799;53.478;10.170;2023-04-25T05:16:23;3.90;;;1.87;;
15402;SDS011;7799;53.478;10.170;2023-04-25T05:19:19;2.37;;;1.60;;
15402;SDS011;7799;53.478;10.170;2023-04-25T05:22:00;3.13;;;1.97;;
15402;SDS011;7799;53.478;10.170;2023-04-25T05:24:37;3.13;;;2.00;;
15402;SDS011;7799;53.478;10.170;2023-04-25T05:27:31;1.50;;;1.37;;
15402;SDS011;7799;53.478;10.170;2023-04-25T05:30:07;3.03;;;1.83;;
15402;SDS011;7799;53.478;10.170;2023-04-25T05:32:54;2.67;;;1.63;;
15402;SDS011;7799;53.478;10.170;2023-04-25T05:35:21;3.20;;;1.87;;
15402;SDS011;7799;53.478;10.170;2023-04-25T05:37:49;4.57;;;2.00;;
15402;SDS011;7799;53.478;10.170;2023-04-25T05:40:17;3.73;;;2.03;;
15402;SDS011;7799;53.478;10.170;2023-04-25T05:43:05;8.23;;;3.10;;
15402;SDS011;7799;53.478;10.170;2023-04-25T05:45:47;5.10;;;2.27;;
15402;SDS011;7799;53.478;10.170;2023-04-25T05:48:32;5.07;;;2.13;;
15402;SDS011;7799;53.478;10.170;2023-04-25T05:51:22;5.77;;;1.83;;
15402;SDS011;7799;53.478;10.170;2023-04-25T05:54:07;7.60;;;2.30;;
15402;SDS011;7799;53.478;10.170;2023-04-25T05:56:34;2.73;;;1.87;;
15402;SDS011;7799;53.478;10.170;2023-04-25T05:59:02;4.07;;;1.50;;
15402;SDS011;7799;53.478;10.170;2023-04-25T06:01:29;3.20;;;1.97;;
15402;SDS011;7799;53.478;10.170;2023-04-25T06:03:56;2.00;;;1.60;;
15402;SDS011;7799;53.478;10.170;2023-04-25T06:06:23;6.53;;;2.03;;
15402;SDS011;7799;53.478;10.170;2023-04-25T06:08:49;4.40;;;2.27;;
15402;SDS011;7799;53.478;10.170;2023-04-25T06:11:16;7.20;;;2.33;;
15402;SDS011;7799;53.478;10.170;2023-04-25T06:13:43;3.67;;;2.13;;
15402;SDS011;7799;53.478;10.170;2023-04-25T06:16:12;2.83;;;1.60;;
15402;SDS011;7799;53.478;10.170;2023-04-25T06:18:39;3.83;;;2.20;;
15402;SDS011;7799;53.478;10.170;2023-04-25T06:21:06;4.17;;;2.20;;
15402;SDS011;7799;53.478;10.170;2023-04-25T06:23:32;3.67;;;2.00;;
15402;SDS011;7799;53.478;10.170;2023-04-25T06:26:05;3.17;;;1.53;;
15402;SDS011;7799;53.478;10.170;2023-04-25T06:28:35;5.77;;;2.30;;
15402;SDS011;7799;53.478;10.170;2023-04-25T06:31:02;3.37;;;2.27;;
15402;SDS011;7799;53.478;10.170;2023-04-25T06:33:30;2.20;;;1.77;;
15402;SDS011;7799;53.478;10.170;2023-04-25T06:35:56;4.17;;;2.10;;
15402;SDS011;7799;53.478;10.170;2023-04-25T06:38:26;2.77;;;1.80;;
15402;SDS011;7799;53.478;10.170;2023-04-25T06:40:55;3.20;;;2.03;;
15402;SDS011;7799;53.478;10.170;2023-04-25T06:43:22;5.13;;;2.63;;
15402;SDS011;7799;53.478;10.170;2023-04-25T06:46:11;5.03;;;2.40;;
15402;SDS011;7799;53.478;10.170;2023-04-25T06:48:44;5.47;;;2.20;;
15402;SDS011;7799;53.478;10.170;2023-04-25T06:51:11;4.07;;;1.90;;
15402;SDS011;7799;53.478;10.170;2023-04-25T06:53:39;3.70;;;1.87;;
15402;SDS011;7799;53.478;10.170;2023-04-25T06:56:09;3.57;;;2.20;;
15402;SDS011;7799;53.478;10.170;2023-04-25T06:58:58;5.47;;;2.07;;
15402;SDS011;7799;53.478;10.170;2023-04-25T07:01:31;4.33;;;2.10;;
15402;SDS011;7799;53.478;10.170;2023-04-25T07:04:02;4.17;;;2.40;;
15402;SDS011;7799;53.478;10.170;2023-04-25T07:06:30;4.10;;;2.10;;
15402;SDS011;7799;53.478;10.170;2023-04-25T07:08:57;4.10;;;2.27;;
15402;SDS011;7799;53.478;10.170;2023-04-25T07:11:24;2.27;;;2.07;;
15402;SDS011;7799;53.478;10.170;2023-04-25T07:13:52;4.60;;;2.27;;
15402;SDS011;7799;53.478;10.170;2023-04-25T07:16:19;6.83;;;2.67;;
15402;SDS011;7799;53.478;10.170;2023-04-25T07:18:46;5.63;;;2.10;;
15402;SDS011;7799;53.478;10.170;2023-04-25T07:21:14;8.03;;;2.37;;
15402;SDS011;7799;53.478;10.170;2023-04-25T07:23:43;4.90;;;2.13;;
15402;SDS011;7799;53.478;10.170;2023-04-25T07:26:14;5.33;;;2.17;;
15402;SDS011;7799;53.478;10.170;2023-04-25T07:29:00;4.53;;;1.93;;
15402;SDS011;7799;53.478;10.170;2023-04-25T07:31:27;4.10;;;2.20;;
15402;SDS011;7799;53.478;10.170;2023-04-25T07:33:54;4.53;;;2.30;;
15402;SDS011;7799;53.478;10.170;2023-04-25T07:36:22;4.13;;;2.47;;
15402;SDS011;7799;53.478;10.170;2023-04-25T07:38:49;4.33;;;2.17;;
15402;SDS011;7799;53.478;10.170;2023-04-25T07:41:16;4.93;;;2.10;;
15402;SDS011;7799;53.478;10.170;2023-04-25T07:43:42;4.83;;;1.93;;
15402;SDS011;7799;53.478;10.170;2023-04-25T07:46:09;7.13;;;2.40;;
15402;SDS011;7799;53.478;10.170;2023-04-25T07:48:36;6.17;;;2.10;;
15402;SDS011;7799;53.478;10.170;2023-04-25T07:51:03;4.90;;;1.90;;
15402;SDS011;7799;53.478;10.170;2023-04-25T07:53:32;6.93;;;2.40;;
15402;SDS011;7799;53.478;10.170;2023-04-25T07:56:05;4.70;;;1.90;;
15402;SDS011;7799;53.478;10.170;2023-04-25T07:58:35;5.17;;;1.90;;
15402;SDS011;7799;53.478;10.170;2023-04-25T08:01:03;6.23;;;1.80;;
15402;SDS011;7799;53.478;10.170;2023-04-25T08:03:33;6.03;;;2.23;;
15402;SDS011;7799;53.478;10.170;2023-04-25T08:06:02;3.37;;;2.10;;
15402;SDS011;7799;53.478;10.170;2023-04-25T08:08:34;4.20;;;1.97;;
15402;SDS011;7799;53.478;10.170;2023-04-25T08:11:01;4.00;;;1.87;;
15402;SDS011;7799;53.478;10.170;2023-04-25T08:13:28;3.53;;;1.73;;
15402;SDS011;7799;53.478;10.170;2023-04-25T08:15:55;4.57;;;2.47;;
15402;SDS011;7799;53.478;10.170;2023-04-25T08:18:21;2.60;;;1.30;;
15402;SDS011;7799;53.478;10.170;2023-04-25T08:20:49;4.60;;;2.07;;
15402;SDS011;7799;53.478;10.170;2023-04-25T08:23:16;4.60;;;1.67;;
15402;SDS011;7799;53.478;10.170;2023-04-25T08:25:52;3.67;;;1.60;;
15402;SDS011;7799;53.478;10.170;2023-04-25T08:28:23;3.17;;;1.47;;
15402;SDS011;7799;53.478;10.170;2023-04-25T08:30:50;3.20;;;1.30;;
15402;SDS011;7799;53.478;10.170;2023-04-25T08:33:18;2.00;;;1.40;;
15402;SDS011;7799;53.478;10.170;2023-04-25T08:35:44;3.10;;;1.50;;
15402;SDS011;7799;53.478;10.170;2023-04-25T08:38:12;4.20;;;1.40;;
15402;SDS011;7799;53.478;10.170;2023-04-25T08:40:39;3.63;;;1.60;;
15402;SDS011;7799;53.478;10.170;2023-04-25T08:43:12;3.03;;;1.30;;
15402;SDS011;7799;53.478;10.170;2023-04-25T08:45:40;4.80;;;1.53;;
15402;SDS011;7799;53.478;10.170;2023-04-25T08:48:13;3.93;;;1.53;;
15402;SDS011;7799;53.478;10.170;2023-04-25T08:50:50;2.67;;;1.10;;
15402;SDS011;7799;53.478;10.170;2023-04-25T08:53:21;4.37;;;1.33;;
15402;SDS011;7799;53.478;10.170;2023-04-25T08:55:48;3.77;;;1.27;;
15402;SDS011;7799;53.478;10.170;2023-04-25T08:58:17;4.53;;;1.33;;
15402;SDS011;7799;53.478;10.170;2023-04-25T09:00:45;4.47;;;1.60;;
15402;SDS011;7799;53.478;10.170;2023-04-25T09:03:12;3.43;;;1.33;;
15402;SDS011;7799;53.478;10.170;2023-04-25T09:05:40;4.30;;;1.30;;
15402;SDS011;7799;53.478;10.170;2023-04-25T09:08:07;4.20;;;1.17;;
15402;SDS011;7799;53.478;10.170;2023-04-25T09:10:35;2.97;;;1.60;;
15402;SDS011;7799;53.478;10.170;2023-04-25T09:13:03;3.33;;;1.73;;
15402;SDS011;7799;53.478;10.170;2023-04-25T09:15:46;1.97;;;1.27;;
15402;SDS011;7799;53.478;10.170;2023-04-25T09:18:23;2.93;;;1.30;;
15402;SDS011;7799;53.478;10.170;2023-04-25T09:20:51;1.77;;;0.97;;
15402;SDS011;7799;53.478;10.170;2023-04-25T09:23:19;3.10;;;1.00;;
15402;SDS011;7799;53.478;10.170;2023-04-25T09:25:46;3.17;;;1.00;;
15402;SDS011;7799;53.478;10.170;2023-04-25T09:28:13;2.13;;;1.17;;
15402;SDS011;7799;53.478;10.170;2023-04-25T09:30:40;1.37;;;0.83;;
15402;SDS011;7799;53.478;10.170;2023-04-25T09:33:31;3.63;;;1.00;;
15402;SDS011;7799;53.478;10.170;2023-04-25T09:36:04;1.13;;;0.70;;
15402;SDS011;7799;53.478;10.170;2023-04-25T09:38:59;1.70;;;0.87;;
15402;SDS011;7799;53.478;10.170;2023-04-25T09:41:28;2.10;;;1.07;;
15402;SDS011;7799;53.478;10.170;2023-04-25T09:43:58;1.27;;;0.80;;
15402;SDS011;7799;53.478;10.170;2023-04-25T09:46:32;2.90;;;0.83;;
15402;SDS011;7799;53.478;10.170;2023-04-25T09:49:05;1.30;;;0.60;;
15402;SDS011;7799;53.478;10.170;2023-04-25T09:51:39;2.03;;;0.97;;
15402;SDS011;7799;53.478;10.170;2023-04-25T09:54:06;1.97;;;1.00;;
15402;SDS011;7799;53.478;10.170;2023-04-25T09:56:42;2.83;;;1.20;;
15402;SDS011;7799;53.478;10.170;2023-04-25T09:59:09;3.43;;;1.63;;
15402;SDS011;7799;53.478;10.170;2023-04-25T10:01:38;2.37;;;1.50;;
15402;SDS011;7799;53.478;10.170;2023-04-25T10:04:24;2.43;;;1.27;;
15402;SDS011;7799;53.478;10.170;2023-04-25T10:07:00;3.20;;;1.70;;
15402;SDS011;7799;53.478;10.170;2023-04-25T10:09:28;4.40;;;1.33;;
15402;SDS011;7799;53.478;10.170;2023-04-25T10:11:57;2.70;;;1.10;;
15402;SDS011;7799;53.478;10.170;2023-04-25T10:14:25;1.30;;;0.83;;
15402;SDS011;7799;53.478;10.170;2023-04-25T10:16:52;1.60;;;0.80;;
15402;SDS011;7799;53.478;10.170;2023-04-25T10:19:20;3.63;;;1.07;;
15402;SDS011;7799;53.478;10.170;2023-04-25T10:21:51;1.57;;;1.30;;
15402;SDS011;7799;53.478;10.170;2023-04-25T10:24:19;4.53;;;1.23;;
15402;SDS011;7799;53.478;10.170;2023-04-25T10:26:46;1.93;;;1.00;;
15402;SDS011;7799;53.478;10.170;2023-04-25T10:29:15;2.57;;;1.27;;
15402;SDS011;7799;53.478;10.170;2023-04-25T10:31:48;1.53;;;1.00;;
15402;SDS011;7799;53.478;10.170;2023-04-25T10:34:15;4.63;;;1.37;;
15402;SDS011;7799;53.478;10.170;2023-04-25T10:36:41;3.07;;;0.90;;
15402;SDS011;7799;53.478;10.170;2023-04-25T10:39:09;1.83;;;1.00;;
15402;SDS011;7799;53.478;10.170;2023-04-25T10:41:45;2.30;;;1.00;;
15402;SDS011;7799;53.478;10.170;2023-04-25T10:44:13;1.27;;;0.90;;
15402;SDS011;7799;53.478;10.170;2023-04-25T10:46:40;1.73;;;1.00;;
15402;SDS011;7799;53.478;10.170;2023-04-25T10:49:07;1.87;;;1.20;;
15402;SDS011;7799;53.478;10.170;2023-04-25T10:51:35;2.77;;;1.30;;
15402;SDS011;7799;53.478;10.170;2023-04-25T10:54:03;2.67;;;1.10;;
15402;SDS011;7799;53.478;10.170;2023-04-25T10:56:32;3.13;;;1.13;;
15402;SDS011;7799;53.478;10.170;2023-04-25T10:59:04;2.73;;;1.40;;
15402;SDS011;7799;53.478;10.170;2023-04-25T11:01:35;2.53;;;1.13;;
15402;SDS011;7799;53.478;10.170;2023-04-25T11:04:03;3.53;;;1.37;;
15402;SDS011;7799;53.478;10.170;2023-04-25T11:06:32;2.20;;;1.10;;
15402;SDS011;7799;53.478;10.170;2023-04-25T11:09:03;4.97;;;1.00;;
15402;SDS011;7799;53.478;10.170;2023-04-25T11:11:40;2.30;;;1.23;;
15402;SDS011;7799;53.478;10.170;2023-04-25T11:14:07;1.80;;;0.90;;
15402;SDS011;7799;53.478;10.170;2023-04-25T11:16:34;3.53;;;1.20;;
15402;SDS011;7799;53.478;10.170;2023-04-25T11:19:01;2.43;;;1.00;;
15402;SDS011;7799;53.478;10.170;2023-04-25T11:21:28;1.43;;;0.90;;
15402;SDS011;7799;53.478;10.170;2023-04-25T11:23:56;3.20;;;1.23;;
15402;SDS011;7799;53.478;10.170;2023-04-25T11:26:24;3.27;;;1.20;;
15402;SDS011;7799;53.478;10.170;2023-04-25T11:28:55;4.03;;;1.00;;
15402;SDS011;7799;53.478;10.170;2023-04-25T11:31:24;4.03;;;1.47;;
15402;SDS011;7799;53.478;10.170;2023-04-25T11:33:52;3.20;;;1.13;;
15402;SDS011;7799;53.478;10.170;2023-04-25T11:36:19;4.30;;;1.43;;
15402;SDS011;7799;53.478;10.170;2023-04-25T11:38:46;1.93;;;0.97;;
15402;SDS011;7799;53.478;10.170;2023-04-25T11:41:12;3.77;;;1.37;;
15402;SDS011;7799;53.478;10.170;2023-04-25T11:43:39;4.77;;;1.10;;
15402;SDS011;7799;53.478;10.170;2023-04-25T11:46:07;2.80;;;1.30;;
15402;SDS011;7799;53.478;10.170;2023-04-25T11:48:38;1.83;;;1.00;;
15402;SDS011;7799;53.478;10.170;2023-04-25T11:51:05;1.57;;;0.87;;
15402;SDS011;7799;53.478;10.170;2023-04-25T11:53:32;1.63;;;0.90;;
15402;SDS011;7799;53.478;10.170;2023-04-25T11:55:58;2.97;;;1.17;;
15402;SDS011;7799;53.478;10.170;2023-04-25T11:58:25;1.30;;;0.50;;
15402;SDS011;7799;53.478;10.170;2023-04-25T12:00:52;1.03;;;0.57;;
15402;SDS011;7799;53.478;10.170;2023-04-25T12:03:20;1.27;;;0.73;;
15402;SDS011;7799;53.478;10.170;2023-04-25T12:05:51;0.57;;;0.40;;
15402;SDS011;7799;53.478;10.170;2023-04-25T12:08:17;1.33;;;0.50;;
15402;SDS011;7799;53.478;10.170;2023-04-25T12:10:45;1.37;;;0.50;;
15402;SDS011;7799;53.478;10.170;2023-04-25T12:13:19;2.20;;;0.50;;
15402;SDS011;7799;53.478;10.170;2023-04-25T12:15:46;1.93;;;0.80;;
15402;SDS011;7799;53.478;10.170;2023-04-25T12:18:13;1.60;;;1.07;;
15402;SDS011;7799;53.478;10.170;2023-04-25T12:20:42;2.57;;;0.73;;
15402;SDS011;7799;53.478;10.170;2023-04-25T12:23:09;3.27;;;1.10;;
15402;SDS011;7799;53.478;10.170;2023-04-25T12:25:37;2.17;;;0.90;;
15402;SDS011;7799;53.478;10.170;2023-04-25T12:28:11;3.47;;;1.20;;
15402;SDS011;7799;53.478;10.170;2023-04-25T12:30:54;3.97;;;1.33;;
15402;SDS011;7799;53.478;10.170;2023-04-25T12:33:22;2.47;;;0.90;;
15402;SDS011;7799;53.478;10.170;2023-04-25T12:35:50;3.07;;;0.90;;
15402;SDS011;7799;53.478;10.170;2023-04-25T12:38:21;2.00;;;0.87;;
15402;SDS011;7799;53.478;10.170;2023-04-25T12:40:49;0.80;;;0.60;;
15402;SDS011;7799;53.478;10.170;2023-04-25T12:43:15;2.73;;;0.87;;
15402;SDS011;7799;53.478;10.170;2023-04-25T12:45:42;2.70;;;1.03;;
15402;SDS011;7799;53.478;10.170;2023-04-25T12:48:08;1.37;;;0.70;;
15402;SDS011;7799;53.478;10.170;2023-04-25T12:50:35;2.63;;;1.00;;
15402;SDS011;7799;53.478;10.170;2023-04-25T12:53:03;2.73;;;1.00;;
15402;SDS011;7799;53.478;10.170;2023-04-25T12:55:30;3.43;;;1.00;;
15402;SDS011;7799;53.478;10.170;2023-04-25T12:57:56;2.53;;;1.20;;
15402;SDS011;7799;53.478;10.170;2023-04-25T13:00:23;1.93;;;1.10;;
15402;SDS011;7799;53.478;10.170;2023-04-25T13:02:51;2.77;;;1.00;;
15402;SDS011;7799;53.478;10.170;2023-04-25T13:05:18;2.03;;;0.77;;
15402;SDS011;7799;53.478;10.170;2023-04-25T13:07:44;1.47;;;1.00;;
15402;SDS011;7799;53.478;10.170;2023-04-25T13:10:12;2.37;;;1.00;;
15402;SDS011;7799;53.478;10.170;2023-04-25T13:12:39;2.40;;;0.93;;
15402;SDS011;7799;53.478;10.170;2023-04-25T13:15:06;3.30;;;0.90;;
15402;SDS011;7799;53.478;10.170;2023-04-25T13:17:36;2.77;;;0.93;;
15402;SDS011;7799;53.478;10.170;2023-04-25T13:20:03;2.13;;;1.03;;
15402;SDS011;7799;53.478;10.170;2023-04-25T13:22:31;3.60;;;1.10;;
15402;SDS011;7799;53.478;10.170;2023-04-25T13:24:57;3.17;;;1.30;;
15402;SDS011;7799;53.478;10.170;2023-04-25T13:27:25;3.17;;;1.20;;
15402;SDS011;7799;53.478;10.170;2023-04-25T13:29:52;4.00;;;1.23;;
15402;SDS011;7799;53.478;10.170;2023-04-25T13:32:19;2.17;;;1.00;;
15402;SDS011;7799;53.478;10.170;2023-04-25T13:34:45;2.57;;;1.00;;
15402;SDS011;7799;53.478;10.170;2023-04-25T13:37:14;2.87;;;1.07;;
15402;SDS011;7799;53.478;10.170;2023-04-25T13:39:40;2.27;;;0.80;;
15402;SDS011;7799;53.478;10.170;2023-04-25T13:42:07;1.67;;;0.97;;
15402;SDS011;7799;53.478;10.170;2023-04-25T13:44:35;1.70;;;0.73;;
15402;SDS011;7799;53.478;10.170;2023-04-25T13:47:02;1.10;;;0.93;;
15402;SDS011;7799;53.478;10.170;2023-04-25T13:49:29;1.60;;;0.80;;
15402;SDS011;7799;53.478;10.170;2023-04-25T13:51:56;2.37;;;1.00;;
15402;SDS011;7799;53.478;10.170;2023-04-25T13:54:22;2.07;;;1.13;;
15402;SDS011;7799;53.478;10.170;2023-04-25T13:56:49;3.90;;;1.57;;
15402;SDS011;7799;53.478;10.170;2023-04-25T13:59:17;2.63;;;1.33;;
15402;SDS011;7799;53.478;10.170;2023-04-25T14:01:44;4.10;;;1.60;;
15402;SDS011;7799;53.478;10.170;2023-04-25T14:04:11;2.13;;;1.00;;
15402;SDS011;7799;53.478;10.170;2023-04-25T14:06:38;3.87;;;1.17;;
15402;SDS011;7799;53.478;10.170;2023-04-25T14:09:05;2.80;;;1.00;;
15402;SDS011;7799;53.478;10.170;2023-04-25T14:11:32;3.43;;;1.63;;
15402;SDS011;7799;53.478;10.170;2023-04-25T14:13:58;2.13;;;1.13;;
15402;SDS011;7799;53.478;10.170;2023-04-25T14:16:25;3.60;;;1.33;;
15402;SDS011;7799;53.478;10.170;2023-04-25T14:18:53;2.50;;;1.60;;
15402;SDS011;7799;53.478;10.170;2023-04-25T14:21:20;1.30;;;0.97;;
15402;SDS011;7799;53.478;10.170;2023-04-25T14:23:47;2.53;;;1.40;;
15402;SDS011;7799;53.478;10.170;2023-04-25T14:26:13;1.37;;;1.07;;
15402;SDS011;7799;53.478;10.170;2023-04-25T14:28:40;2.57;;;1.17;;
15402;SDS011;7799;53.478;10.170;2023-04-25T14:31:07;3.00;;;1.43;;
15402;SDS011;7799;53.478;10.170;2023-04-25T14:33:33;2.30;;;1.20;;
15402;SDS011;7799;53.478;10.170;2023-04-25T14:36:01;2.57;;;1.20;;
15402;SDS011;7799;53.478;10.170;2023-04-25T14:38:28;3.90;;;1.40;;
15402;SDS011;7799;53.478;10.170;2023-04-25T14:40:58;2.27;;;1.10;;
15402;SDS011;7799;53.478;10.170;2023-04-25T14:43:24;1.80;;;1.10;;
15402;SDS011;7799;53.478;10.170;2023-04-25T14:45:51;2.77;;;1.20;;
15402;SDS011;7799;53.478;10.170;2023-04-25T14:48:18;3.87;;;1.30;;
15402;SDS011;7799;53.478;10.170;2023-04-25T14:50:45;3.77;;;1.63;;
15402;SDS011;7799;53.478;10.170;2023-04-25T14:53:13;4.63;;;1.57;;
15402;SDS011;7799;53.478;10.170;2023-04-25T14:55:40;2.53;;;0.90;;
15402;SDS011;7799;53.478;10.170;2023-04-25T14:58:07;1.57;;;0.80;;
15402;SDS011;7799;53.478;10.170;2023-04-25T15:00:34;2.20;;;1.00;;
15402;SDS011;7799;53.478;10.170;2023-04-25T15:03:01;1.60;;;1.00;;
15402;SDS011;7799;53.478;10.170;2023-04-25T15:05:27;2.97;;;1.00;;
15402;SDS011;7799;53.478;10.170;2023-04-25T15:07:54;1.77;;;0.97;;
15402;SDS011;7799;53.478;10.170;2023-04-25T15:10:22;1.50;;;0.90;;
15402;SDS011;7799;53.478;10.170;2023-04-25T15:12:49;1.87;;;0.93;;
15402;SDS011;7799;53.478;10.170;2023-04-25T15:15:18;1.93;;;1.00;;
15402;SDS011;7799;53.478;10.170;2023-04-25T15:17:45;2.97;;;0.97;;
15402;SDS011;7799;53.478;10.170;2023-04-25T15:20:12;2.53;;;1.20;;
15402;SDS011;7799;53.478;10.170;2023-04-25T15:22:40;3.40;;;1.10;;
15402;SDS011;7799;53.478;10.170;2023-04-25T15:25:08;2.63;;;1.00;;
15402;SDS011;7799;53.478;10.170;2023-04-25T15:27:37;2.83;;;1.00;;
15402;SDS011;7799;53.478;10.170;2023-04-25T15:30:07;3.10;;;1.20;;
15402;SDS011;7799;53.478;10.170;2023-04-25T15:32:36;1.00;;;0.73;;
15402;SDS011;7799;53.478;10.170;2023-04-25T15:35:03;3.47;;;1.27;;
15402;SDS011;7799;53.478;10.170;2023-04-25T15:37:31;3.80;;;1.27;;
15402;SDS011;7799;53.478;10.170;2023-04-25T15:40:00;2.73;;;1.10;;
15402;SDS011;7799;53.478;10.170;2023-04-25T15:42:29;3.07;;;1.37;;
15402;SDS011;7799;53.478;10.170;2023-04-25T15:44:57;2.07;;;1.50;;